sensor_id;sensor_type;location;lat;lon;timestamp;pressure;altitude;pressure_sealevel;temperature;humidity
9035;BME280;4552;43.422;24.592;2023-01-29T00:01:46;100171.25;;;1.15;100.00
9035;BME280;4552;43.422;24.592;2023-01-29T00:04:15;100173.03;;;1.16;100.00
9035;BME280;4552;43.422;24.592;2023-01-29T00:06:45;100192.78;;;1.17;100.00
9035;BME280;4552;43.422;24.592;2023-01-29T00:09:15;100208.50;;;1.26;100.00
9035;BME280;4552;43.422;24.592;2023-01-29T00:11:43;100178.88;;;1.10;100.00
9035;BME280;4552;43.422;24.592;2023-01-29T00:14:10;100209.28;;;1.22;100.00
9035;BME280;4552;43.422;24.592;2023-01-29T00:16:38;100220.47;;;1.24;100.00
9035;BME280;4552;43.422;24.592;2023-01-29T00:19:12;100199.59;;;1.15;100.00
9035;BME280;4552;43.422;24.592;2023-01-29T00:21:39;100201.34;;;1.14;100.00
9035;BME280;4552;43.422;24.592;2023-01-29T00:24:06;100212.69;;;1.22;100.00
9035;BME280;4552;43.422;24.592;2023-01-29T00:26:35;100187.28;;;1.03;100.00
9035;BME280;4552;43.422;24.592;2023-01-29T00:29:04;100182.97;;;1.02;100.00
9035;BME280;4552;43.422;24.592;2023-01-29T00:31:31;100213.47;;;1.18;100.00
9035;BME280;4552;43.422;24.592;2023-01-29T00:33:59;100209.91;;;1.15;100.00
9035;BME280;4552;43.422;24.592;2023-01-29T00:36:27;100225.53;;;1.21;100.00
9035;BME280;4552;43.422;24.592;2023-01-29T00:38:56;100214.25;;;1.16;100.00
9035;BME280;4552;43.422;24.592;2023-01-29T00:41:27;100197.63;;;1.05;100.00
9035;BME280;4552;43.422;24.592;2023-01-29T00:44:12;100208.19;;;1.14;100.00
9035;BME280;4552;43.422;24.592;2023-01-29T00:46:57;100206.47;;;1.14;100.00
9035;BME280;4552;43.422;24.592;2023-01-29T00:49:24;100224.69;;;1.20;100.00
9035;BME280;4552;43.422;24.592;2023-01-29T00:51:54;100182.06;;;1.02;100.00
9035;BME280;4552;43.422;24.592;2023-01-29T00:54:39;100221.19;;;1.18;100.00
9035;BME280;4552;43.422;24.592;2023-01-29T00:57:07;100207.75;;;0.99;100.00
9035;BME280;4552;43.422;24.592;2023-01-29T00:59:37;100223.38;;;1.05;100.00
9035;BME280;4552;43.422;24.592;2023-01-29T01:02:05;100235.69;;;1.15;100.00
9035;BME280;4552;43.422;24.592;2023-01-29T01:04:50;100214.63;;;1.00;100.00
9035;BME280;4552;43.422;24.592;2023-01-29T01:07:18;100227.16;;;1.16;100.00
9035;BME280;4552;43.422;24.592;2023-01-29T01:09:46;100235.78;;;1.18;100.00
9035;BME280;4552;43.422;24.592;2023-01-29T01:12:31;100223.47;;;1.08;100.00
9035;BME280;4552;43.422;24.592;2023-01-29T01:15:01;100242.44;;;1.10;100.00
9035;BME280;4552;43.422;24.592;2023-01-29T01:17:33;100213.53;;;0.92;100.00
9035;BME280;4552;43.422;24.592;2023-01-29T01:20:01;100231.06;;;1.03;100.00
9035;BME280;4552;43.422;24.592;2023-01-29T01:22:29;100240.50;;;1.03;100.00
9035;BME280;4552;43.422;24.592;2023-01-29T01:24:56;100203.91;;;0.85;100.00
9035;BME280;4552;43.422;24.592;2023-01-29T01:27:23;100234.75;;;1.11;100.00
9035;BME280;4552;43.422;24.592;2023-01-29T01:29:51;100229.22;;;0.98;100.00
9035;BME280;4552;43.422;24.592;2023-01-29T01:32:20;100251.81;;;1.08;100.00
9035;BME280;4552;43.422;24.592;2023-01-29T01:34:47;100228.31;;;0.97;100.00
9035;BME280;4552;43.422;24.592;2023-01-29T01:37:14;100249.16;;;1.05;100.00
9035;BME280;4552;43.422;24.592;2023-01-29T01:39:42;100250.00;;;1.04;100.00
9035;BME280;4552;43.422;24.592;2023-01-29T01:42:13;100236.81;;;0.95;100.00
9035;BME280;4552;43.422;24.592;2023-01-29T01:44:56;100237.09;;;1.04;100.00
9035;BME280;4552;43.422;24.592;2023-01-29T01:47:35;100227.31;;;0.92;100.00
9035;BME280;4552;43.422;24.592;2023-01-29T01:50:07;100237.81;;;1.00;100.00
9035;BME280;4552;43.422;24.592;2023-01-29T01:52:39;100221.31;;;0.93;100.00
9035;BME280;4552;43.422;24.592;2023-01-29T01:55:12;100238.84;;;1.05;100.00
9035;BME280;4552;43.422;24.592;2023-01-29T01:57:42;100240.31;;;0.97;100.00
9035;BME280;4552;43.422;24.592;2023-01-29T02:00:14;100242.19;;;1.01;100.00
9035;BME280;4552;43.422;24.592;2023-01-29T02:02:45;100250.88;;;1.06;100.00
9035;BME280;4552;43.422;24.592;2023-01-29T02:05:31;100242.94;;;0.98;100.00
9035;BME280;4552;43.422;24.592;2023-01-29T02:08:20;100235.97;;;0.94;100.00
9035;BME280;4552;43.422;24.592;2023-01-29T02:11:08;100254.31;;;1.05;100.00
9035;BME280;4552;43.422;24.592;2023-01-29T02:13:37;100251.78;;;1.06;100.00
9035;BME280;4552;43.422;24.592;2023-01-29T02:16:05;100242.09;;;0.98;100.00
9035;BME280;4552;43.422;24.592;2023-01-29T02:18:34;100249.16;;;1.05;100.00
9035;BME280;4552;43.422;24.592;2023-01-29T02:21:19;100215.09;;;0.85;100.00
9035;BME280;4552;43.422;24.592;2023-01-29T02:24:10;100242.19;;;1.01;100.00
9035;BME280;4552;43.422;24.592;2023-01-29T02:27:00;100258.66;;;1.07;100.00
9035;BME280;4552;43.422;24.592;2023-01-29T02:29:41;100233.25;;;0.90;100.00
9035;BME280;4552;43.422;24.592;2023-01-29T02:32:20;100249.91;;;1.01;100.00
9035;BME280;4552;43.422;24.592;2023-01-29T02:34:59;100234.91;;;0.88;100.00
9035;BME280;4552;43.422;24.592;2023-01-29T02:37:54;100233.97;;;0.86;100.00
9035;BME280;4552;43.422;24.592;2023-01-29T02:40:28;100270.66;;;1.05;100.00
9035;BME280;4552;43.422;24.592;2023-01-29T02:43:03;100276.66;;;1.06;100.00
9035;BME280;4552;43.422;24.592;2023-01-29T02:45:43;100256.56;;;0.94;100.00
9035;BME280;4552;43.422;24.592;2023-01-29T02:48:18;100257.41;;;0.95;100.00
9035;BME280;4552;43.422;24.592;2023-01-29T02:50:50;100255.69;;;0.94;100.00
9035;BME280;4552;43.422;24.592;2023-01-29T02:53:26;100254.97;;;0.98;100.00
9035;BME280;4552;43.422;24.592;2023-01-29T02:55:57;100259.53;;;1.08;100.00
9035;BME280;4552;43.422;24.592;2023-01-29T02:58:30;100277.72;;;1.12;100.00
9035;BME280;4552;43.422;24.592;2023-01-29T03:01:05;100264.66;;;1.06;100.00
9035;BME280;4552;43.422;24.592;2023-01-29T03:03:38;100268.38;;;1.16;100.00
9035;BME280;4552;43.422;24.592;2023-01-29T03:06:11;100258.84;;;1.13;100.00
9035;BME280;4552;43.422;24.592;2023-01-29T03:08:45;100263.91;;;1.10;100.00
9035;BME280;4552;43.422;24.592;2023-01-29T03:11:19;100271.53;;;1.07;100.00
9035;BME280;4552;43.422;24.592;2023-01-29T03:13:52;100283.34;;;1.29;100.00
9035;BME280;4552;43.422;24.592;2023-01-29T03:16:26;100283.25;;;1.26;100.00
9035;BME280;4552;43.422;24.592;2023-01-29T03:19:03;100262.97;;;1.07;100.00
9035;BME280;4552;43.422;24.592;2023-01-29T03:21:34;100276.06;;;1.14;100.00
9035;BME280;4552;43.422;24.592;2023-01-29T03:24:25;100264.16;;;1.19;100.00
9035;BME280;4552;43.422;24.592;2023-01-29T03:27:15;100272.81;;;1.21;100.00
9035;BME280;4552;43.422;24.592;2023-01-29T03:30:02;100299.03;;;1.36;100.00
9035;BME280;4552;43.422;24.592;2023-01-29T03:32:50;100291.88;;;1.26;100.00
9035;BME280;4552;43.422;24.592;2023-01-29T03:35:22;100305.97;;;1.37;100.00
9035;BME280;4552;43.422;24.592;2023-01-29T03:38:01;100279.50;;;1.15;100.00
9035;BME280;4552;43.422;24.592;2023-01-29T03:40:34;100279.31;;;1.09;100.00
9035;BME280;4552;43.422;24.592;2023-01-29T03:43:09;100301.47;;;1.32;100.00
9035;BME280;4552;43.422;24.592;2023-01-29T03:45:50;100283.44;;;1.32;100.00
9035;BME280;4552;43.422;24.592;2023-01-29T03:48:33;100306.22;;;1.46;100.00
9035;BME280;4552;43.422;24.592;2023-01-29T03:51:14;100265.81;;;1.16;100.00
9035;BME280;4552;43.422;24.592;2023-01-29T03:53:48;100259.97;;;1.23;100.00
9035;BME280;4552;43.422;24.592;2023-01-29T03:56:31;100273.97;;;1.31;100.00
9035;BME280;4552;43.422;24.592;2023-01-29T03:59:03;100267.53;;;1.17;100.00
9035;BME280;4552;43.422;24.592;2023-01-29T04:01:40;100308.50;;;1.36;100.00
9035;BME280;4552;43.422;24.592;2023-01-29T04:04:17;100278.03;;;1.23;100.00
9035;BME280;4552;43.422;24.592;2023-01-29T04:06:51;100266.66;;;1.16;100.00
9035;BME280;4552;43.422;24.592;2023-01-29T04:09:27;100278.94;;;1.25;100.00
9035;BME280;4552;43.422;24.592;2023-01-29T04:12:02;100275.88;;;1.38;100.00
9035;BME280;4552;43.422;24.592;2023-01-29T04:14:35;100305.91;;;1.67;100.00
9035;BME280;4552;43.422;24.592;2023-01-29T04:17:19;100305.63;;;1.56;100.00
9035;BME280;4552;43.422;24.592;2023-01-29T04:19:49;100318.13;;;1.43;100.00
9035;BME280;4552;43.422;24.592;2023-01-29T04:22:19;100316.56;;;1.48;100.00
9035;BME280;4552;43.422;24.592;2023-01-29T04:24:56;100298.03;;;1.31;100.00
9035;BME280;4552;43.422;24.592;2023-01-29T04:27:37;100294.41;;;1.25;100.00
9035;BME280;4552;43.422;24.592;2023-01-29T04:30:17;100310.09;;;1.32;100.00
9035;BME280;4552;43.422;24.592;2023-01-29T04:32:56;100321.38;;;1.36;100.00
9035;BME280;4552;43.422;24.592;2023-01-29T04:35:40;100317.28;;;1.44;100.00
9035;BME280;4552;43.422;24.592;2023-01-29T04:38:18;100324.47;;;1.54;100.00
9035;BME280;4552;43.422;24.592;2023-01-29T04:40:50;100278.16;;;1.27;100.00
9035;BME280;4552;43.422;24.592;2023-01-29T04:43:25;100294.59;;;1.31;100.00
9035;BME280;4552;43.422;24.592;2023-01-29T04:46:08;100318.22;;;1.46;100.00
9035;BME280;4552;43.422;24.592;2023-01-29T04:48:46;100319.66;;;1.66;100.00
9035;BME280;4552;43.422;24.592;2023-01-29T04:51:23;100333.81;;;1.80;100.00
9035;BME280;4552;43.422;24.592;2023-01-29T04:53:57;100298.66;;;1.52;100.00
9035;BME280;4552;43.422;24.592;2023-01-29T04:56:45;100349.88;;;1.71;100.00
9035;BME280;4552;43.422;24.592;2023-01-29T04:59:18;100342.09;;;1.70;100.00
9035;BME280;4552;43.422;24.592;2023-01-29T05:01:51;100331.13;;;1.46;100.00
9035;BME280;4552;43.422;24.592;2023-01-29T05:04:19;100330.09;;;1.41;100.00
9035;BME280;4552;43.422;24.592;2023-01-29T05:06:51;100334.63;;;1.48;100.00
9035;BME280;4552;43.422;24.592;2023-01-29T05:09:19;100362.56;;;1.64;100.00
9035;BME280;4552;43.422;24.592;2023-01-29T05:11:49;100355.50;;;1.57;100.00
9035;BME280;4552;43.422;24.592;2023-01-29T05:14:18;100341.03;;;1.32;100.00
9035;BME280;4552;43.422;24.592;2023-01-29T05:16:50;100345.34;;;1.33;100.00
9035;BME280;4552;43.422;24.592;2023-01-29T05:19:18;100340.66;;;1.50;100.00
9035;BME280;4552;43.422;24.592;2023-01-29T05:21:55;100336.00;;;1.37;100.00
9035;BME280;4552;43.422;24.592;2023-01-29T05:24:25;100368.44;;;1.58;100.00
9035;BME280;4552;43.422;24.592;2023-01-29T05:26:53;100377.88;;;1.58;100.00
9035;BME280;4552;43.422;24.592;2023-01-29T05:29:39;100365.47;;;1.45;100.00
9035;BME280;4552;43.422;24.592;2023-01-29T05:32:10;100377.75;;;1.53;100.00
9035;BME280;4552;43.422;24.592;2023-01-29T05:34:38;100353.56;;;1.50;100.00
9035;BME280;4552;43.422;24.592;2023-01-29T05:37:10;100372.75;;;1.59;100.00
9035;BME280;4552;43.422;24.592;2023-01-29T05:39:37;100353.66;;;1.53;100.00
9035;BME280;4552;43.422;24.592;2023-01-29T05:42:05;100370.84;;;1.52;100.00
9035;BME280;4552;43.422;24.592;2023-01-29T05:44:32;100380.47;;;1.58;100.00
9035;BME280;4552;43.422;24.592;2023-01-29T05:46:59;100370.34;;;1.65;100.00
9035;BME280;4552;43.422;24.592;2023-01-29T05:49:27;100383.78;;;1.54;100.00
9035;BME280;4552;43.422;24.592;2023-01-29T05:51:54;100392.72;;;1.65;100.00
9035;BME280;4552;43.422;24.592;2023-01-29T05:54:23;100358.72;;;1.50;100.00
9035;BME280;4552;43.422;24.592;2023-01-29T05:56:51;100389.44;;;1.70;100.00
9035;BME280;4552;43.422;24.592;2023-01-29T05:59:19;100350.63;;;1.38;100.00
9035;BME280;4552;43.422;24.592;2023-01-29T06:01:47;100379.91;;;1.68;100.00
9035;BME280;4552;43.422;24.592;2023-01-29T06:04:14;100378.72;;;1.57;100.00
9035;BME280;4552;43.422;24.592;2023-01-29T06:06:44;100401.63;;;1.76;100.00
9035;BME280;4552;43.422;24.592;2023-01-29T06:09:11;100404.94;;;1.72;100.00
9035;BME280;4552;43.422;24.592;2023-01-29T06:11:40;100404.81;;;1.67;100.00
9035;BME280;4552;43.422;24.592;2023-01-29T06:14:07;100400.41;;;1.63;100.00
9035;BME280;4552;43.422;24.592;2023-01-29T06:16:34;100388.97;;;1.85;100.00
9035;BME280;4552;43.422;24.592;2023-01-29T06:19:01;100420.84;;;1.87;100.00
9035;BME280;4552;43.422;24.592;2023-01-29T06:21:28;100427.81;;;1.90;100.00
9035;BME280;4552;43.422;24.592;2023-01-29T06:23:56;100419.28;;;1.92;100.00
9035;BME280;4552;43.422;24.592;2023-01-29T06:26:23;100392.47;;;1.87;100.00
9035;BME280;4552;43.422;24.592;2023-01-29T06:28:52;100402.53;;;1.78;100.00
9035;BME280;4552;43.422;24.592;2023-01-29T06:31:19;100413.97;;;1.86;100.00
9035;BME280;4552;43.422;24.592;2023-01-29T06:33:46;100427.75;;;1.88;100.00
9035;BME280;4552;43.422;24.592;2023-01-29T06:36:16;100440.16;;;2.00;100.00
9035;BME280;4552;43.422;24.592;2023-01-29T06:38:43;100444.59;;;2.05;100.00
9035;BME280;4552;43.422;24.592;2023-01-29T06:41:14;100451.19;;;1.94;100.00
9035;BME280;4552;43.422;24.592;2023-01-29T06:43:43;100447.00;;;1.99;100.00
9035;BME280;4552;43.422;24.592;2023-01-29T06:46:12;100439.28;;;1.99;100.00
9035;BME280;4552;43.422;24.592;2023-01-29T06:48:41;100461.06;;;2.09;100.00
9035;BME280;4552;43.422;24.592;2023-01-29T06:51:08;100437.34;;;1.92;100.00
9035;BME280;4552;43.422;24.592;2023-01-29T06:53:42;100428.56;;;1.86;100.00
9035;BME280;4552;43.422;24.592;2023-01-29T06:56:10;100463.25;;;1.95;100.00
9035;BME280;4552;43.422;24.592;2023-01-29T06:58:39;100469.47;;;2.02;100.00
9035;BME280;4552;43.422;24.592;2023-01-29T07:01:13;100466.13;;;2.06;100.00
9035;BME280;4552;43.422;24.592;2023-01-29T07:03:43;100472.25;;;2.09;100.00
9035;BME280;4552;43.422;24.592;2023-01-29T07:06:16;100437.09;;;1.83;100.00
9035;BME280;4552;43.422;24.592;2023-01-29T07:08:45;100472.34;;;2.12;100.00
9035;BME280;4552;43.422;24.592;2023-01-29T07:11:12;100477.16;;;2.00;100.00
9035;BME280;4552;43.422;24.592;2023-01-29T07:13:41;100475.84;;;1.85;100.00
9035;BME280;4552;43.422;24.592;2023-01-29T07:16:09;100479.66;;;1.97;100.00
9035;BME280;4552;43.422;24.592;2023-01-29T07:18:39;100476.47;;;2.06;100.00
9035;BME280;4552;43.422;24.592;2023-01-29T07:21:07;100447.34;;;1.80;100.00
9035;BME280;4552;43.422;24.592;2023-01-29T07:23:34;100464.81;;;1.90;100.00
9035;BME280;4552;43.422;24.592;2023-01-29T07:26:02;100475.31;;;1.96;100.00
9035;BME280;4552;43.422;24.592;2023-01-29T07:28:30;100468.41;;;1.95;100.00
9035;BME280;4552;43.422;24.592;2023-01-29T07:30:58;100454.00;;;2.02;100.00
9035;BME280;4552;43.422;24.592;2023-01-29T07:33:26;100453.00;;;1.98;100.00
9035;BME280;4552;43.422;24.592;2023-01-29T07:35:56;100449.69;;;2.02;100.00
9035;BME280;4552;43.422;24.592;2023-01-29T07:38:24;100455.53;;;2.26;100.00
9035;BME280;4552;43.422;24.592;2023-01-29T07:40:53;100489.44;;;2.38;100.00
9035;BME280;4552;43.422;24.592;2023-01-29T07:43:21;100459.53;;;2.15;100.00
9035;BME280;4552;43.422;24.592;2023-01-29T07:45:51;100490.06;;;2.30;100.00
9035;BME280;4552;43.422;24.592;2023-01-29T07:48:22;100487.13;;;2.47;100.00
9035;BME280;4552;43.422;24.592;2023-01-29T07:50:57;100478.34;;;2.42;100.00
9035;BME280;4552;43.422;24.592;2023-01-29T07:53:26;100495.50;;;2.40;100.00
9035;BME280;4552;43.422;24.592;2023-01-29T07:55:53;100489.44;;;2.38;100.00
9035;BME280;4552;43.422;24.592;2023-01-29T07:58:23;100500.75;;;2.43;100.00
9035;BME280;4552;43.422;24.592;2023-01-29T08:00:51;100500.72;;;2.42;100.00
9035;BME280;4552;43.422;24.592;2023-01-29T08:03:19;100492.63;;;2.30;100.00
9035;BME280;4552;43.422;24.592;2023-01-29T08:05:52;100484.06;;;2.31;100.00
9035;BME280;4552;43.422;24.592;2023-01-29T08:08:20;100491.31;;;2.14;100.00
9035;BME280;4552;43.422;24.592;2023-01-29T08:10:47;100516.00;;;2.34;100.00
9035;BME280;4552;43.422;24.592;2023-01-29T08:13:15;100526.75;;;2.49;100.00
9035;BME280;4552;43.422;24.592;2023-01-29T08:15:42;100511.34;;;2.52;100.00
9035;BME280;4552;43.422;24.592;2023-01-29T08:18:13;100480.72;;;2.35;100.00
9035;BME280;4552;43.422;24.592;2023-01-29T08:20:42;100508.63;;;2.48;100.00
9035;BME280;4552;43.422;24.592;2023-01-29T08:23:12;100504.34;;;2.48;100.00
9035;BME280;4552;43.422;24.592;2023-01-29T08:25:42;100525.31;;;2.59;100.00
9035;BME280;4552;43.422;24.592;2023-01-29T08:28:15;100508.78;;;2.54;100.00
9035;BME280;4552;43.422;24.592;2023-01-29T08:30:48;100514.41;;;2.69;100.00
9035;BME280;4552;43.422;24.592;2023-01-29T08:33:21;100528.22;;;2.71;100.00
9035;BME280;4552;43.422;24.592;2023-01-29T08:35:49;100529.41;;;2.83;100.00
9035;BME280;4552;43.422;24.592;2023-01-29T08:38:16;100491.63;;;2.56;100.00
9035;BME280;4552;43.422;24.592;2023-01-29T08:40:47;100505.16;;;2.78;100.00
9035;BME280;4552;43.422;24.592;2023-01-29T08:43:14;100524.66;;;2.98;100.00
9035;BME280;4552;43.422;24.592;2023-01-29T08:45:43;100516.75;;;2.92;100.00
9035;BME280;4552;43.422;24.592;2023-01-29T08:48:11;100529.28;;;3.10;100.00
9035;BME280;4552;43.422;24.592;2023-01-29T08:50:38;100543.22;;;3.16;100.00
9035;BME280;4552;43.422;24.592;2023-01-29T08:53:07;100526.38;;;2.98;100.00
9035;BME280;4552;43.422;24.592;2023-01-29T08:55:35;100529.66;;;2.92;100.00
9035;BME280;4552;43.422;24.592;2023-01-29T08:58:05;100508.88;;;2.88;100.00
9035;BME280;4552;43.422;24.592;2023-01-29T09:00:33;100519.56;;;3.01;100.00
9035;BME280;4552;43.422;24.592;2023-01-29T09:03:00;100518.03;;;3.09;100.00
9035;BME280;4552;43.422;24.592;2023-01-29T09:05:28;100540.97;;;3.28;100.00
9035;BME280;4552;43.422;24.592;2023-01-29T09:07:56;100523.03;;;3.36;100.00
9035;BME280;4552;43.422;24.592;2023-01-29T09:10:23;100520.34;;;3.31;100.00
9035;BME280;4552;43.422;24.592;2023-01-29T09:12:53;100539.63;;;3.45;100.00
9035;BME280;4552;43.422;24.592;2023-01-29T09:15:26;100519.63;;;3.38;100.00
9035;BME280;4552;43.422;24.592;2023-01-29T09:17:53;100530.13;;;3.44;100.00
9035;BME280;4552;43.422;24.592;2023-01-29T09:20:20;100533.56;;;3.43;100.00
9035;BME280;4552;43.422;24.592;2023-01-29T09:22:49;100523.56;;;3.58;100.00
9035;BME280;4552;43.422;24.592;2023-01-29T09:25:18;100500.22;;;3.55;100.00
9035;BME280;4552;43.422;24.592;2023-01-29T09:27:45;100527.47;;;3.77;100.00
9035;BME280;4552;43.422;24.592;2023-01-29T09:30:15;100486.34;;;3.53;100.00
9035;BME280;4552;43.422;24.592;2023-01-29T09:32:46;100487.72;;;3.75;100.00
9035;BME280;4552;43.422;24.592;2023-01-29T09:35:16;100501.81;;;3.88;100.00
9035;BME280;4552;43.422;24.592;2023-01-29T09:37:46;100508.47;;;3.77;100.00
9035;BME280;4552;43.422;24.592;2023-01-29T09:40:22;100514.19;;;3.62;100.00
9035;BME280;4552;43.422;24.592;2023-01-29T09:42:54;100516.09;;;3.71;100.00
9035;BME280;4552;43.422;24.592;2023-01-29T09:45:26;100477.16;;;3.66;100.00
9035;BME280;4552;43.422;24.592;2023-01-29T09:47:58;100507.19;;;3.59;100.00
9035;BME280;4552;43.422;24.592;2023-01-29T09:50:31;100508.16;;;3.63;100.00
9035;BME280;4552;43.422;24.592;2023-01-29T09:53:10;100488.75;;;3.44;100.00
9035;BME280;4552;43.422;24.592;2023-01-29T09:55:49;100499.09;;;3.82;100.00
9035;BME280;4552;43.422;24.592;2023-01-29T09:58:23;100478.25;;;3.76;100.00
9035;BME280;4552;43.422;24.592;2023-01-29T10:00:59;100475.66;;;3.76;100.00
9035;BME280;4552;43.422;24.592;2023-01-29T10:06:53;100494.19;;;3.94;100.00
9035;BME280;4552;43.422;24.592;2023-01-29T10:09:43;100480.44;;;3.98;100.00
9035;BME280;4552;43.422;24.592;2023-01-29T10:12:35;100476.38;;;4.09;100.00
9035;BME280;4552;43.422;24.592;2023-01-29T10:15:28;100491.72;;;4.41;100.00
9035;BME280;4552;43.422;24.592;2023-01-29T10:18:15;100438.53;;;4.15;100.00
9035;BME280;4552;43.422;24.592;2023-01-29T10:20:59;100456.63;;;4.14;100.00
9035;BME280;4552;43.422;24.592;2023-01-29T10:23:36;100476.03;;;4.34;100.00
9035;BME280;4552;43.422;24.592;2023-01-29T10:26:07;100480.00;;;4.60;100.00
9035;BME280;4552;43.422;24.592;2023-01-29T10:28:41;100479.03;;;4.55;100.00
9035;BME280;4552;43.422;24.592;2023-01-29T10:31:13;100476.72;;;4.70;100.00
9035;BME280;4552;43.422;24.592;2023-01-29T10:33:47;100470.63;;;4.68;100.00
9035;BME280;4552;43.422;24.592;2023-01-29T10:36:21;100470.19;;;4.44;100.00
9035;BME280;4552;43.422;24.592;2023-01-29T10:38:51;100464.00;;;4.37;100.00
9035;BME280;4552;43.422;24.592;2023-01-29T10:41:29;100472.59;;;4.35;100.00
9035;BME280;4552;43.422;24.592;2023-01-29T10:44:19;100469.09;;;4.33;100.00
9035;BME280;4552;43.422;24.592;2023-01-29T10:47:07;100461.19;;;4.27;100.00
9035;BME280;4552;43.422;24.592;2023-01-29T10:49:59;100442.88;;;4.18;100.00
9035;BME280;4552;43.422;24.592;2023-01-29T10:52:42;100448.19;;;4.24;100.00
9035;BME280;4552;43.422;24.592;2023-01-29T10:55:29;100449.91;;;4.22;100.00
9035;BME280;4552;43.422;24.592;2023-01-29T10:58:08;100455.09;;;4.23;100.00
9035;BME280;4552;43.422;24.592;2023-01-29T11:00:40;100430.91;;;4.23;100.00
9035;BME280;4552;43.422;24.592;2023-01-29T11:03:14;100426.53;;;4.19;100.00
9035;BME280;4552;43.422;24.592;2023-01-29T11:05:46;100410.41;;;3.92;100.00
9035;BME280;4552;43.422;24.592;2023-01-29T11:08:19;100438.19;;;3.99;100.00
9035;BME280;4552;43.422;24.592;2023-01-29T11:10:56;100427.09;;;4.06;100.00
9035;BME280;4552;43.422;24.592;2023-01-29T11:13:31;100414.16;;;4.06;100.00
9035;BME280;4552;43.422;24.592;2023-01-29T11:16:04;100432.34;;;4.09;100.00
9035;BME280;4552;43.422;24.592;2023-01-29T11:18:47;100415.06;;;4.08;100.00
9035;BME280;4552;43.422;24.592;2023-01-29T11:21:16;100389.63;;;3.87;100.00
9035;BME280;4552;43.422;24.592;2023-01-29T11:23:43;100421.47;;;4.26;100.00
9035;BME280;4552;43.422;24.592;2023-01-29T11:26:17;100408.06;;;4.04;100.00
9035;BME280;4552;43.422;24.592;2023-01-29T11:28:48;100422.50;;;4.36;100.00
9035;BME280;4552;43.422;24.592;2023-01-29T11:31:19;100373.53;;;4.02;100.00
9035;BME280;4552;43.422;24.592;2023-01-29T11:33:47;100377.88;;;4.04;100.00
9035;BME280;4552;43.422;24.592;2023-01-29T11:36:25;100377.22;;;4.16;100.00
9035;BME280;4552;43.422;24.592;2023-01-29T11:39:19;100404.22;;;4.28;100.00
9035;BME280;4552;43.422;24.592;2023-01-29T11:41:52;100400.97;;;4.38;100.00
9035;BME280;4552;43.422;24.592;2023-01-29T11:44:25;100402.53;;;4.29;100.00
9035;BME280;4552;43.422;24.592;2023-01-29T11:46:52;100381.53;;;4.14;100.00
9035;BME280;4552;43.422;24.592;2023-01-29T11:49:34;100398.31;;;4.34;100.00
9035;BME280;4552;43.422;24.592;2023-01-29T11:52:05;100399.31;;;4.42;100.00
9035;BME280;4552;43.422;24.592;2023-01-29T11:54:37;100402.44;;;4.72;100.00
9035;BME280;4552;43.422;24.592;2023-01-29T12:14:31;100363.66;;;5.34;97.50
9035;BME280;4552;43.422;24.592;2023-01-29T12:17:09;100365.53;;;5.46;97.52
9035;BME280;4552;43.422;24.592;2023-01-29T12:19:47;100362.88;;;4.83;98.12
9035;BME280;4552;43.422;24.592;2023-01-29T12:22:24;100383.50;;;4.76;100.00
9035;BME280;4552;43.422;24.592;2023-01-29T12:24:56;100386.16;;;4.80;100.00
9035;BME280;4552;43.422;24.592;2023-01-29T12:27:30;100370.19;;;4.55;100.00
9035;BME280;4552;43.422;24.592;2023-01-29T12:30:14;100389.38;;;4.64;100.00
9035;BME280;4552;43.422;24.592;2023-01-29T12:32:50;100378.16;;;4.67;100.00
9035;BME280;4552;43.422;24.592;2023-01-29T12:35:26;100390.16;;;4.62;100.00
9035;BME280;4552;43.422;24.592;2023-01-29T12:38:01;100377.97;;;4.55;100.00
9035;BME280;4552;43.422;24.592;2023-01-29T12:40:43;100356.50;;;4.65;100.00
9035;BME280;4552;43.422;24.592;2023-01-29T12:43:32;100356.16;;;4.44;100.00
9035;BME280;4552;43.422;24.592;2023-01-29T12:46:23;100362.25;;;4.46;100.00
9035;BME280;4552;43.422;24.592;2023-01-29T12:48:56;100400.53;;;4.62;100.00
9035;BME280;4552;43.422;24.592;2023-01-29T12:51:30;100388.06;;;4.40;100.00
9035;BME280;4552;43.422;24.592;2023-01-29T12:54:04;100363.81;;;4.38;100.00
9035;BME280;4552;43.422;24.592;2023-01-29T12:56:35;100394.47;;;4.60;100.00
9035;BME280;4552;43.422;24.592;2023-01-29T12:59:11;100355.25;;;4.42;100.00
9035;BME280;4552;43.422;24.592;2023-01-29T13:05:16;100389.53;;;4.75;100.00
9035;BME280;4552;43.422;24.592;2023-01-29T13:07:50;100402.59;;;4.81;100.00
9035;BME280;4552;43.422;24.592;2023-01-29T13:10:24;100365.19;;;4.67;100.00
9035;BME280;4552;43.422;24.592;2023-01-29T13:12:58;100371.16;;;4.61;100.00
9035;BME280;4552;43.422;24.592;2023-01-29T13:15:34;100387.66;;;4.68;100.00
9035;BME280;4552;43.422;24.592;2023-01-29T13:18:19;100387.84;;;4.78;100.00
9035;BME280;4552;43.422;24.592;2023-01-29T13:20:53;100375.75;;;4.77;100.00
9035;BME280;4552;43.422;24.592;2023-01-29T13:23:41;100385.56;;;4.95;100.00
9035;BME280;4552;43.422;24.592;2023-01-29T13:26:10;100395.19;;;5.03;100.00
9035;BME280;4552;43.422;24.592;2023-01-29T13:28:51;100373.97;;;4.73;100.00
9035;BME280;4552;43.422;24.592;2023-01-29T13:31:27;100393.47;;;5.04;100.00
9035;BME280;4552;43.422;24.592;2023-01-29T13:37:30;100388.34;;;5.07;100.00
9035;BME280;4552;43.422;24.592;2023-01-29T13:39:59;100382.03;;;4.91;100.00
9035;BME280;4552;43.422;24.592;2023-01-29T13:42:38;100390.66;;;4.89;100.00
9035;BME280;4552;43.422;24.592;2023-01-29T13:45:18;100403.47;;;4.81;100.00
9035;BME280;4552;43.422;24.592;2023-01-29T13:47:50;100369.03;;;4.90;100.00
9035;BME280;4552;43.422;24.592;2023-01-29T13:50:40;100409.63;;;4.88;100.00
9035;BME280;4552;43.422;24.592;2023-01-29T13:53:27;100378.09;;;4.64;100.00
9035;BME280;4552;43.422;24.592;2023-01-29T13:56:28;100378.91;;;4.60;100.00
9035;BME280;4552;43.422;24.592;2023-01-29T13:58:56;100403.97;;;4.61;100.00
9035;BME280;4552;43.422;24.592;2023-01-29T14:04:35;100390.22;;;4.65;100.00